Time;durP1;ratioP1;P1;durP2;ratioP2;P2;SDS_P1;SDS_P2;PMS_P1;PMS_P2;Temp;Humidity;BMP_temperature;BMP_pressure;BME280_temperature;BME280_humidity;BME280_pressure;Samples;Min_cycle;Max_cycle;Signal;HPM_P1;HPM_P2
2021/12/24 00:01:09;;;;;;;32.70;14.57;;;6.00;99.90;;;;;;5084295;28;20040;-71
2021/12/24 00:03:35;;;;;;;28.55;14.50;;;5.90;99.90;;;;;;5113828;28;20044;-71
2021/12/24 00:06:03;;;;;;;36.03;16.23;;;6.00;99.90;;;;;;5109655;28;20562;-71
2021/12/24 00:08:29;;;;;;;24.65;12.75;;;6.00;99.90;;;;;;5094752;28;20051;-71
2021/12/24 00:11:01;;;;;;;30.77;15.10;;;6.00;99.90;;;;;;5144927;27;20032;-71
2021/12/24 00:13:37;;;;;;;28.30;14.32;;;6.10;99.90;;;;;;5110299;28;20131;-71
2021/12/24 00:18:55;;;;;;;25.63;13.95;;;6.10;99.90;;;;;;5100609;28;20047;-71
2021/12/24 00:37:22;;;;;;;20.50;11.93;;;6.40;99.90;;;;;;5127434;27;20036;-71
2021/12/24 00:40:31;;;;;;;20.80;11.48;;;6.40;99.90;;;;;;5110081;28;20044;-70
2021/12/24 00:42:43;;;;;;;26.42;13.32;;;6.40;99.90;;;;;;5102708;28;20101;-71
2021/12/24 00:45:09;;;;;;;26.75;13.18;;;6.40;99.90;;;;;;5107817;28;20102;-71
2021/12/24 00:47:35;;;;;;;23.52;12.65;;;6.40;99.90;;;;;;5093886;28;20032;-71
2021/12/24 00:50:06;;;;;;;24.25;12.52;;;6.40;99.90;;;;;;5096056;28;20043;-71
2021/12/24 00:55:09;;;;;;;24.00;11.02;;;6.40;99.90;;;;;;5108192;28;20055;-71
2021/12/24 00:57:44;;;;;;;21.52;11.23;;;6.40;99.90;;;;;;5093090;28;20044;-71
2021/12/24 01:00:17;;;;;;;18.60;10.43;;;6.40;99.90;;;;;;5115628;27;20111;-71
2021/12/24 01:02:43;;;;;;;22.67;10.32;;;6.40;99.90;;;;;;5094913;28;20043;-71
2021/12/24 01:05:11;;;;;;;19.50;10.73;;;6.50;99.90;;;;;;5093154;28;20521;-71
2021/12/24 01:07:37;;;;;;;20.50;10.40;;;6.50;99.90;;;;;;5110237;28;20089;-71
2021/12/24 01:10:07;;;;;;;18.33;9.18;;;6.50;99.90;;;;;;5102015;28;20031;-71
2021/12/24 01:12:34;;;;;;;20.92;10.38;;;6.50;99.90;;;;;;5109814;28;20036;-71
2021/12/24 01:14:59;;;;;;;19.85;9.57;;;6.60;99.90;;;;;;5094695;28;20369;-71
2021/12/24 01:20:02;;;;;;;18.03;9.43;;;6.60;99.90;;;;;;5114495;27;20504;-71
2021/12/24 01:23:04;;;;;;;17.10;9.15;;;6.60;99.90;;;;;;5112022;28;20479;-71
2021/12/24 01:25:29;;;;;;;17.92;8.88;;;6.60;99.90;;;;;;5104718;28;20040;-71
2021/12/24 01:28:12;;;;;;;12.52;7.13;;;6.60;99.90;;;;;;5092892;28;20048;-71
2021/12/24 01:38:50;;;;;;;13.13;7.13;;;6.80;99.90;;;;;;5092395;28;20048;-71
2021/12/24 01:42:39;;;;;;;10.77;6.22;;;6.80;99.90;;;;;;5107721;28;20059;-71
2021/12/24 01:44:01;;;;;;;11.60;5.88;;;6.80;99.90;;;;;;5112552;28;20051;-71
2021/12/24 01:46:27;;;;;;;11.52;6.53;;;6.80;99.90;;;;;;5111639;28;20028;-71
2021/12/24 01:48:52;;;;;;;11.85;6.22;;;6.90;99.90;;;;;;5146938;27;20096;-72
2021/12/24 01:51:18;;;;;;;13.75;6.63;;;6.90;99.90;;;;;;5078002;28;20484;-71
2021/12/24 01:53:43;;;;;;;11.48;5.88;;;6.90;99.90;;;;;;5092469;28;20433;-71
2021/12/24 01:56:09;;;;;;;9.43;5.20;;;6.90;99.90;;;;;;5105868;28;20043;-71
2021/12/24 01:58:35;;;;;;;8.82;5.15;;;6.90;99.90;;;;;;5095445;28;20054;-72
2021/12/24 02:01:00;;;;;;;9.88;5.03;;;7.00;99.90;;;;;;5111318;28;20500;-72
2021/12/24 02:03:26;;;;;;;9.38;5.25;;;7.00;99.90;;;;;;5146723;27;20039;-72
2021/12/24 02:05:52;;;;;;;8.38;4.43;;;7.00;99.90;;;;;;5098935;28;20032;-72
2021/12/24 02:08:17;;;;;;;10.23;5.47;;;7.10;99.90;;;;;;5109015;28;20051;-72
2021/12/24 02:10:43;;;;;;;9.52;5.15;;;7.10;99.90;;;;;;5117144;28;20073;-72
2021/12/24 02:13:09;;;;;;;7.20;4.13;;;7.10;99.90;;;;;;5075135;28;20032;-72
2021/12/24 02:29:50;;;;;;;10.20;4.70;;;7.00;99.90;;;;;;5111210;28;20036;-72
2021/12/24 02:32:15;;;;;;;7.68;4.13;;;7.00;99.90;;;;;;5127427;28;20035;-72
2021/12/24 02:34:41;;;;;;;10.77;4.53;;;7.10;99.90;;;;;;5145169;27;20555;-72
2021/12/24 02:37:07;;;;;;;8.02;4.00;;;7.10;99.90;;;;;;5109786;28;20126;-72
2021/12/24 02:39:32;;;;;;;7.03;3.38;;;7.10;99.90;;;;;;5145225;27;20130;-72
2021/12/24 02:42:10;;;;;;;8.60;3.63;;;7.10;99.90;;;;;;5094687;28;20151;-72
2021/12/24 02:44:36;;;;;;;8.07;3.83;;;7.10;99.90;;;;;;5113799;28;20039;-72
2021/12/24 02:47:57;;;;;;;9.98;4.20;;;7.10;99.90;;;;;;5095580;28;20040;-72
2021/12/24 02:55:06;;;;;;;5.82;2.72;;;7.10;99.90;;;;;;5110620;28;20052;-72
2021/12/24 02:57:34;;;;;;;6.53;3.20;;;7.20;99.90;;;;;;5095458;28;20500;-72
2021/12/24 03:00:07;;;;;;;7.05;3.33;;;7.30;99.90;;;;;;5098674;28;20446;-72
2021/12/24 03:02:34;;;;;;;6.40;3.08;;;7.30;99.90;;;;;;5113108;28;20039;-72
2021/12/24 03:05:01;;;;;;;7.18;3.25;;;7.30;99.90;;;;;;5112032;28;20039;-72
2021/12/24 03:07:27;;;;;;;6.55;3.00;;;7.30;99.90;;;;;;5095904;28;20831;-72
2021/12/24 03:09:54;;;;;;;5.85;2.72;;;7.30;99.90;;;;;;5114613;28;20039;-72
2021/12/24 03:12:19;;;;;;;7.05;3.28;;;7.30;99.90;;;;;;5115613;28;20487;-72
2021/12/24 03:14:45;;;;;;;8.63;3.47;;;7.30;99.90;;;;;;5097869;28;20055;-72
2021/12/24 03:17:15;;;;;;;5.78;3.10;;;7.30;99.90;;;;;;5098082;28;20483;-72
2021/12/24 03:19:41;;;;;;;7.03;3.47;;;7.40;99.90;;;;;;5115298;28;20502;-72
2021/12/24 03:22:30;;;;;;;6.63;3.33;;;7.40;99.90;;;;;;5111785;27;20044;-72
2021/12/24 03:24:55;;;;;;;7.10;3.50;;;7.50;99.90;;;;;;5094946;28;20455;-72
2021/12/24 03:27:22;;;;;;;10.90;4.32;;;7.50;99.90;;;;;;5095029;28;20036;-72
2021/12/24 03:29:49;;;;;;;11.38;4.88;;;7.50;99.90;;;;;;5086712;28;20028;-72
2021/12/24 03:32:14;;;;;;;12.55;5.45;;;7.50;99.90;;;;;;5081474;27;20044;-72
2021/12/24 03:34:40;;;;;;;14.20;5.25;;;7.50;99.90;;;;;;5104706;28;20044;-72
2021/12/24 03:37:07;;;;;;;13.27;5.47;;;7.60;99.90;;;;;;5090934;28;20126;-72
2021/12/24 03:39:33;;;;;;;18.80;6.47;;;7.60;99.90;;;;;;5113307;27;20044;-72
2021/12/24 03:41:58;;;;;;;15.80;5.90;;;7.60;99.90;;;;;;5082507;28;20040;-72
2021/12/24 03:44:33;;;;;;;18.65;6.57;;;7.60;99.90;;;;;;5098376;28;20046;-72
2021/12/24 03:47:12;;;;;;;19.05;7.68;;;7.60;99.90;;;;;;5096523;28;20036;-72
2021/12/24 03:49:55;;;;;;;22.92;8.18;;;7.60;99.90;;;;;;5114871;28;20488;-71
2021/12/24 03:54:57;;;;;;;24.13;8.70;;;7.70;99.90;;;;;;5101022;28;20399;-72
2021/12/24 03:57:40;;;;;;;30.52;9.98;;;7.80;99.90;;;;;;5102812;28;20093;-72
2021/12/24 04:00:18;;;;;;;30.95;10.15;;;7.80;99.90;;;;;;5084854;28;20043;-72
2021/12/24 04:02:45;;;;;;;29.02;9.18;;;7.90;99.90;;;;;;5125230;27;20039;-72
2021/12/24 04:05:10;;;;;;;34.67;9.57;;;7.90;99.90;;;;;;5121555;27;20126;-72
2021/12/24 04:07:36;;;;;;;36.75;10.80;;;8.00;99.90;;;;;;5086773;28;20047;-72
2021/12/24 04:12:48;;;;;;;35.00;11.65;;;8.00;99.90;;;;;;5091726;28;20051;-72
2021/12/24 04:15:14;;;;;;;45.10;11.95;;;8.10;99.90;;;;;;5089554;28;20036;-72
2021/12/24 04:17:41;;;;;;;34.63;11.90;;;8.00;99.90;;;;;;5090168;28;20028;-72
2021/12/24 04:25:21;;;;;;;36.40;13.18;;;8.10;99.90;;;;;;5126693;27;20063;-72
2021/12/24 04:27:49;;;;;;;42.80;13.93;;;8.20;99.90;;;;;;5140102;27;20032;-72
2021/12/24 04:30:19;;;;;;;53.47;15.82;;;8.20;99.90;;;;;;5093654;28;20036;-72
2021/12/24 04:35:31;;;;;;;44.53;16.17;;;8.20;99.90;;;;;;5114222;28;20104;-72
2021/12/24 04:51:20;;;;;;;42.38;15.20;;;8.30;99.90;;;;;;5109790;28;20039;-72
2021/12/24 05:02:23;;;;;;;42.20;15.93;;;8.40;99.90;;;;;;5103030;28;20036;-72
2021/12/24 05:04:54;;;;;;;51.03;17.75;;;8.40;99.90;;;;;;5100420;28;20044;-72
2021/12/24 05:10:06;;;;;;;39.38;16.10;;;8.40;99.90;;;;;;5126291;27;20040;-72
2021/12/24 05:12:34;;;;;;;40.45;16.42;;;8.40;99.90;;;;;;5116253;27;20039;-72
2021/12/24 05:15:04;;;;;;;43.85;17.50;;;8.40;99.90;;;;;;5093005;28;20044;-72
2021/12/24 05:17:53;;;;;;;30.23;13.82;;;8.40;99.90;;;;;;5091011;28;20085;-72
2021/12/24 05:23:03;;;;;;;29.67;14.13;;;8.40;99.90;;;;;;5098886;28;20396;-72
2021/12/24 05:25:28;;;;;;;31.23;14.13;;;8.40;99.90;;;;;;5108812;28;20031;-72
2021/12/24 05:27:55;;;;;;;27.13;15.35;;;8.40;99.90;;;;;;5108384;28;20062;-72
2021/12/24 05:30:22;;;;;;;32.72;15.55;;;8.40;99.90;;;;;;5094555;28;20039;-72
2021/12/24 05:32:48;;;;;;;31.23;15.57;;;8.50;99.90;;;;;;5104798;28;20096;-72
2021/12/24 05:35:14;;;;;;;38.13;17.90;;;8.40;99.90;;;;;;5094015;28;20461;-71
2021/12/24 05:37:39;;;;;;;38.40;17.90;;;8.50;99.90;;;;;;5134276;27;20039;-72
2021/12/24 05:40:06;;;;;;;37.63;17.30;;;8.50;99.90;;;;;;5090387;28;20047;-71
2021/12/24 05:42:33;;;;;;;37.47;18.35;;;8.50;99.90;;;;;;5082814;28;20075;-72
2021/12/24 05:45:05;;;;;;;37.25;16.80;;;8.50;99.90;;;;;;5083114;28;20543;-71
2021/12/24 05:47:31;;;;;;;37.25;16.52;;;8.50;99.90;;;;;;5120045;27;20096;-72
2021/12/24 05:49:57;;;;;;;43.17;18.02;;;8.50;99.90;;;;;;5110791;28;20042;-72
2021/12/24 05:52:23;;;;;;;42.38;18.17;;;8.50;99.90;;;;;;5102258;28;20036;-72
2021/12/24 05:54:49;;;;;;;41.70;17.35;;;8.50;99.90;;;;;;5103769;28;20077;-71
2021/12/24 05:57:14;;;;;;;41.92;18.42;;;8.50;99.90;;;;;;5100831;28;20043;-72
2021/12/24 05:59:40;;;;;;;44.90;18.35;;;8.50;99.90;;;;;;5098505;28;20452;-71
2021/12/24 06:02:06;;;;;;;40.85;18.63;;;8.40;99.90;;;;;;5092680;28;20039;-71
2021/12/24 06:04:31;;;;;;;42.65;19.02;;;8.50;99.90;;;;;;5121688;28;20115;-71
2021/12/24 06:06:58;;;;;;;43.33;18.33;;;8.50;99.90;;;;;;5105262;28;20502;-72
2021/12/24 06:09:24;;;;;;;35.72;15.18;;;8.40;99.90;;;;;;5111451;28;20543;-71
2021/12/24 06:11:50;;;;;;;34.60;16.35;;;8.50;99.90;;;;;;5110370;28;20114;-71
2021/12/24 06:14:16;;;;;;;38.25;16.15;;;8.50;99.90;;;;;;5110461;28;20081;-72
2021/12/24 06:16:49;;;;;;;31.92;13.88;;;8.40;99.90;;;;;;5139062;27;20039;-71
2021/12/24 06:19:17;;;;;;;29.83;12.82;;;8.50;99.90;;;;;;5115989;28;20088;-71
2021/12/24 06:21:43;;;;;;;35.40;15.45;;;8.50;99.90;;;;;;5110085;28;20084;-72
2021/12/24 06:24:12;;;;;;;35.45;14.75;;;8.50;99.90;;;;;;5132059;27;20050;-72
2021/12/24 06:26:37;;;;;;;34.28;14.20;;;8.50;99.90;;;;;;5078946;28;20534;-72
2021/12/24 06:29:03;;;;;;;35.05;14.68;;;8.50;99.90;;;;;;5130993;27;20044;-71
2021/12/24 06:31:29;;;;;;;36.63;13.98;;;8.40;99.90;;;;;;5142479;27;20031;-71
2021/12/24 06:33:54;;;;;;;33.92;13.63;;;8.40;99.90;;;;;;5113380;28;20035;-71
2021/12/24 06:36:20;;;;;;;34.63;13.13;;;8.50;99.90;;;;;;5114035;27;20035;-71
2021/12/24 06:38:45;;;;;;;33.70;12.90;;;8.40;99.90;;;;;;5114593;28;20032;-71
2021/12/24 06:41:11;;;;;;;31.33;14.27;;;8.40;99.90;;;;;;5122586;27;20052;-72
2021/12/24 06:43:37;;;;;;;34.35;12.77;;;8.40;99.90;;;;;;5133255;27;20062;-71
2021/12/24 06:46:10;;;;;;;33.35;13.38;;;8.40;99.90;;;;;;5123687;27;20035;-71
2021/12/24 06:48:36;;;;;;;36.40;13.05;;;8.40;99.90;;;;;;5103981;28;20075;-71
2021/12/24 06:51:02;;;;;;;36.92;11.98;;;8.30;99.90;;;;;;5087271;28;20040;-72
2021/12/24 06:53:28;;;;;;;20.92;7.90;;;8.30;99.90;;;;;;5092343;28;20044;-72
2021/12/24 06:55:53;;;;;;;31.38;12.13;;;8.40;99.90;;;;;;5098237;28;20043;-71
2021/12/24 06:58:19;;;;;;;26.55;11.13;;;8.40;99.90;;;;;;5139130;27;20120;-71
2021/12/24 07:00:45;;;;;;;30.10;12.38;;;8.40;99.90;;;;;;5112922;27;20476;-71
2021/12/24 07:03:10;;;;;;;27.65;11.45;;;8.30;99.90;;;;;;5127798;27;20036;-71
2021/12/24 07:05:36;;;;;;;30.60;12.85;;;8.40;99.90;;;;;;5120962;27;20516;-71
2021/12/24 07:08:02;;;;;;;24.58;10.10;;;8.30;99.90;;;;;;5125877;27;20039;-71
2021/12/24 07:10:28;;;;;;;28.25;8.68;;;8.30;99.90;;;;;;5146571;27;20040;-71
2021/12/24 07:12:54;;;;;;;28.23;9.43;;;8.30;99.90;;;;;;5112336;28;20043;-73
2021/12/24 07:15:19;;;;;;;24.40;9.32;;;8.30;99.90;;;;;;5119654;27;20042;-78
2021/12/24 07:17:45;;;;;;;23.55;9.15;;;8.40;99.90;;;;;;5111248;27;20450;-72
2021/12/24 07:20:11;;;;;;;20.48;9.38;;;8.30;99.90;;;;;;5094923;28;20064;-72
2021/12/24 07:22:37;;;;;;;23.95;9.40;;;8.30;99.90;;;;;;5077159;28;20040;-71
2021/12/24 07:25:06;;;;;;;22.23;9.60;;;8.20;99.90;;;;;;5130807;27;20039;-72
2021/12/24 07:27:32;;;;;;;18.42;7.05;;;8.20;99.90;;;;;;5087179;28;20048;-72
2021/12/24 07:29:57;;;;;;;24.00;7.72;;;8.20;99.90;;;;;;5095921;28;20035;-72
2021/12/24 07:32:23;;;;;;;28.70;8.50;;;8.30;99.90;;;;;;5094256;28;20465;-76
2021/12/24 07:34:48;;;;;;;24.80;9.07;;;8.30;99.90;;;;;;5091888;28;20391;-72
2021/12/24 07:37:14;;;;;;;18.77;8.23;;;8.20;99.90;;;;;;5102108;28;20038;-72
2021/12/24 07:39:40;;;;;;;22.77;8.60;;;8.20;99.90;;;;;;5095422;28;20052;-72
2021/12/24 07:42:06;;;;;;;22.88;8.50;;;8.20;99.90;;;;;;5123122;27;20044;-72
2021/12/24 07:44:35;;;;;;;24.83;8.50;;;8.20;99.90;;;;;;5098029;28;20416;-72
2021/12/24 07:47:03;;;;;;;24.60;8.70;;;8.20;99.90;;;;;;5084242;28;20036;-72
2021/12/24 07:52:08;;;;;;;24.92;8.25;;;8.20;99.90;;;;;;5095266;28;20070;-71
2021/12/24 07:54:36;;;;;;;26.30;8.38;;;8.20;99.90;;;;;;5094000;28;20071;-72
2021/12/24 07:57:01;;;;;;;22.60;8.43;;;8.20;99.90;;;;;;5101302;28;20096;-72
2021/12/24 07:59:28;;;;;;;20.75;7.95;;;8.20;99.90;;;;;;5097414;28;20047;-72
2021/12/24 08:01:55;;;;;;;21.60;7.63;;;8.20;99.90;;;;;;5123903;27;20086;-72
2021/12/24 08:04:21;;;;;;;26.50;7.88;;;8.20;99.90;;;;;;5131045;27;20162;-72
2021/12/24 08:06:46;;;;;;;19.00;7.18;;;8.20;99.90;;;;;;5092453;28;20789;-72
2021/12/24 08:09:12;;;;;;;24.92;7.13;;;8.20;99.90;;;;;;5093572;28;20119;-71
2021/12/24 08:11:38;;;;;;;17.77;6.20;;;8.20;99.90;;;;;;5093681;28;20141;-71
2021/12/24 08:14:06;;;;;;;18.10;6.50;;;8.20;99.90;;;;;;5114286;28;20433;-71
2021/12/24 08:16:32;;;;;;;20.33;7.60;;;8.20;99.90;;;;;;5095660;28;20048;-71
2021/12/24 08:18:58;;;;;;;22.77;7.85;;;8.10;99.90;;;;;;5077776;28;20507;-72
2021/12/24 08:21:25;;;;;;;24.20;7.10;;;8.10;99.90;;;;;;5093417;28;20051;-72
2021/12/24 08:23:51;;;;;;;18.77;6.53;;;8.10;99.90;;;;;;5096296;28;20031;-72
2021/12/24 08:26:17;;;;;;;25.63;7.10;;;8.10;99.90;;;;;;5112515;28;20408;-72
2021/12/24 08:28:44;;;;;;;18.40;7.53;;;8.10;99.90;;;;;;5127360;27;20036;-72
2021/12/24 08:31:09;;;;;;;25.38;6.72;;;8.10;99.90;;;;;;5111243;28;20412;-72
2021/12/24 08:33:35;;;;;;;22.05;6.40;;;8.10;99.90;;;;;;5097209;28;20046;-72
2021/12/24 08:36:06;;;;;;;21.88;6.60;;;8.10;99.90;;;;;;5112589;28;20040;-72
2021/12/24 08:38:32;;;;;;;19.20;6.70;;;8.10;99.90;;;;;;5127263;27;20122;-72
2021/12/24 08:40:57;;;;;;;25.80;7.32;;;8.10;99.90;;;;;;5097099;28;20150;-72
2021/12/24 08:43:23;;;;;;;24.95;7.68;;;8.10;99.90;;;;;;5146969;27;20043;-73
2021/12/24 08:45:49;;;;;;;18.75;6.22;;;8.10;99.90;;;;;;5144874;27;20619;-72
2021/12/24 08:48:14;;;;;;;22.17;6.20;;;8.10;99.90;;;;;;5137284;27;20044;-73
2021/12/24 08:50:40;;;;;;;18.63;6.63;;;8.10;99.90;;;;;;5098558;28;20036;-73
2021/12/24 08:53:06;;;;;;;20.70;5.82;;;8.10;99.90;;;;;;5114588;27;20039;-72
2021/12/24 08:55:36;;;;;;;22.52;5.97;;;8.10;99.90;;;;;;5098265;28;20040;-73
2021/12/24 08:58:02;;;;;;;21.05;5.75;;;8.10;99.90;;;;;;5095876;28;20423;-73
2021/12/24 09:00:29;;;;;;;20.33;4.75;;;8.10;99.90;;;;;;5109015;28;20067;-73
2021/12/24 09:02:54;;;;;;;17.30;5.40;;;8.10;99.90;;;;;;5091617;28;20411;-73
2021/12/24 09:05:20;;;;;;;16.65;4.53;;;8.20;99.90;;;;;;5107353;28;20032;-73
2021/12/24 09:07:46;;;;;;;18.15;4.72;;;8.10;99.90;;;;;;5096059;28;20166;-73
2021/12/24 09:10:12;;;;;;;16.05;4.40;;;8.10;99.90;;;;;;5133086;27;20040;-73
2021/12/24 09:12:39;;;;;;;15.15;4.45;;;8.20;99.90;;;;;;5092895;28;20044;-73
2021/12/24 09:15:06;;;;;;;14.10;4.25;;;8.10;99.90;;;;;;5109240;27;20361;-73
2021/12/24 09:17:31;;;;;;;17.33;4.22;;;8.10;99.90;;;;;;5092591;28;20123;-73
2021/12/24 09:19:57;;;;;;;15.98;5.18;;;8.10;99.90;;;;;;5126403;27;20122;-73
2021/12/24 09:22:29;;;;;;;13.55;4.18;;;8.10;99.90;;;;;;5110509;28;20032;-73
2021/12/24 09:24:56;;;;;;;15.18;4.13;;;8.10;99.90;;;;;;5094667;28;20039;-73
2021/12/24 09:27:22;;;;;;;17.08;4.93;;;8.10;99.90;;;;;;5111510;28;20044;-73
2021/12/24 09:29:48;;;;;;;14.77;5.22;;;8.10;99.90;;;;;;5112628;28;20035;-73
2021/12/24 09:32:14;;;;;;;17.00;4.72;;;8.10;99.90;;;;;;5112769;28;20063;-73
2021/12/24 09:34:41;;;;;;;17.40;4.80;;;8.10;99.90;;;;;;5092459;28;20176;-73
2021/12/24 09:37:06;;;;;;;19.02;4.93;;;8.10;99.90;;;;;;5116024;27;20141;-73
2021/12/24 09:39:33;;;;;;;22.67;5.57;;;8.10;99.90;;;;;;5075159;28;20504;-73
2021/12/24 09:41:59;;;;;;;13.38;4.38;;;8.10;99.90;;;;;;5100810;28;20118;-73
2021/12/24 09:44:25;;;;;;;17.40;4.78;;;8.10;99.90;;;;;;5092328;28;20093;-73
2021/12/24 09:46:51;;;;;;;17.25;4.88;;;8.20;99.90;;;;;;5074868;28;20040;-73
2021/12/24 09:49:17;;;;;;;17.45;5.60;;;8.10;99.90;;;;;;5091887;28;20105;-73
2021/12/24 09:51:45;;;;;;;12.18;3.92;;;8.10;99.90;;;;;;5091205;28;20082;-73
2021/12/24 09:54:16;;;;;;;17.13;4.47;;;8.20;99.90;;;;;;5095426;28;20421;-73
2021/12/24 09:56:43;;;;;;;11.98;4.25;;;8.20;99.90;;;;;;5108179;28;20028;-73
2021/12/24 09:59:09;;;;;;;13.88;4.18;;;8.20;99.90;;;;;;5109050;28;20588;-73
2021/12/24 10:01:42;;;;;;;13.32;4.30;;;8.20;99.90;;;;;;5125883;27;20053;-73
2021/12/24 10:04:13;;;;;;;9.43;3.42;;;8.20;99.90;;;;;;5125496;27;20051;-73
2021/12/24 10:06:47;;;;;;;11.70;3.50;;;8.30;99.90;;;;;;5098734;28;20526;-73
2021/12/24 10:09:13;;;;;;;9.23;2.92;;;8.30;99.90;;;;;;5075669;28;20707;-73
2021/12/24 10:11:47;;;;;;;10.82;2.90;;;8.30;99.90;;;;;;5106280;28;20032;-73
2021/12/24 10:14:14;;;;;;;9.88;2.90;;;8.30;99.90;;;;;;5109721;28;20058;-73
2021/12/24 10:16:48;;;;;;;8.70;2.85;;;8.30;99.90;;;;;;5085764;28;20518;-73
2021/12/24 10:19:15;;;;;;;7.38;3.03;;;8.30;99.90;;;;;;5093359;28;20035;-73
2021/12/24 10:21:42;;;;;;;6.38;2.45;;;8.30;99.90;;;;;;5091401;28;20139;-73
2021/12/24 10:24:14;;;;;;;7.18;2.50;;;8.20;99.90;;;;;;5090304;28;20044;-73
2021/12/24 10:26:47;;;;;;;10.38;2.80;;;8.30;99.90;;;;;;5074827;28;20036;-73
2021/12/24 10:29:31;;;;;;;7.78;2.55;;;8.30;99.90;;;;;;5091878;28;20054;-73
2021/12/24 10:32:06;;;;;;;3.35;1.30;;;8.20;99.90;;;;;;5078264;28;20024;-73
2021/12/24 10:34:34;;;;;;;3.03;1.40;;;8.00;99.90;;;;;;5146492;27;20040;-73
2021/12/24 10:37:08;;;;;;;3.00;1.50;;;8.00;99.90;;;;;;5101487;28;20086;-73
2021/12/24 10:39:41;;;;;;;2.92;1.60;;;7.90;99.90;;;;;;5108981;28;20085;-72
2021/12/24 10:42:19;;;;;;;3.08;1.63;;;7.60;99.90;;;;;;5091714;28;20396;-73
2021/12/24 10:44:47;;;;;;;3.15;1.63;;;7.60;99.90;;;;;;5093928;28;20036;-73
2021/12/24 10:47:17;;;;;;;3.03;1.77;;;7.60;99.90;;;;;;5093623;28;20043;-73
2021/12/24 10:54:53;;;;;;;4.63;2.35;;;7.50;99.90;;;;;;5108854;28;20555;-73
2021/12/24 10:57:31;;;;;;;4.10;2.10;;;7.40;99.90;;;;;;5091994;28;20040;-73
2021/12/24 11:00:00;;;;;;;3.88;1.80;;;7.40;99.90;;;;;;5100290;28;20031;-73
2021/12/24 11:02:35;;;;;;;3.90;2.05;;;7.40;99.90;;;;;;5109860;28;20169;-73
2021/12/24 11:05:03;;;;;;;4.10;2.10;;;7.40;99.90;;;;;;5115221;28;20425;-73
2021/12/24 11:07:35;;;;;;;4.30;2.20;;;7.30;99.90;;;;;;5113430;28;20073;-73
2021/12/24 11:10:14;;;;;;;4.90;2.05;;;7.20;99.90;;;;;;5085585;28;20039;-73
2021/12/24 11:12:46;;;;;;;4.70;2.10;;;7.20;99.90;;;;;;5113117;28;20114;-73
2021/12/24 11:15:27;;;;;;;4.60;2.00;;;7.20;99.90;;;;;;5096586;28;20484;-73
2021/12/24 11:17:56;;;;;;;3.67;1.73;;;7.20;99.90;;;;;;5115522;28;20038;-73
2021/12/24 11:20:23;;;;;;;3.67;1.73;;;7.10;99.90;;;;;;5097615;28;20695;-73
2021/12/24 11:22:59;;;;;;;3.65;1.75;;;7.20;99.90;;;;;;5113444;28;20040;-73
2021/12/24 11:25:27;;;;;;;3.97;2.00;;;7.20;99.90;;;;;;5087759;28;20035;-73
2021/12/24 11:27:53;;;;;;;4.90;2.10;;;7.10;99.90;;;;;;5090152;28;20032;-72
2021/12/24 11:30:21;;;;;;;4.25;1.83;;;7.10;99.90;;;;;;5111602;27;20032;-73
2021/12/24 11:32:47;;;;;;;3.63;1.92;;;7.10;99.90;;;;;;5093447;28;20050;-72
2021/12/24 11:35:14;;;;;;;4.32;1.98;;;7.20;99.90;;;;;;5111674;28;20633;-73
2021/12/24 11:37:44;;;;;;;3.45;1.60;;;7.10;99.90;;;;;;5077289;28;20115;-73
2021/12/24 11:40:13;;;;;;;2.78;1.50;;;7.10;99.90;;;;;;5098191;28;20412;-72
2021/12/24 11:42:40;;;;;;;4.18;1.95;;;7.10;99.90;;;;;;5097841;28;20364;-73
2021/12/24 11:45:07;;;;;;;3.80;1.70;;;7.10;99.90;;;;;;5106517;28;20044;-73
2021/12/24 11:47:33;;;;;;;4.18;1.80;;;7.20;99.90;;;;;;5094381;28;20051;-73
2021/12/24 11:49:59;;;;;;;4.20;1.70;;;7.10;99.90;;;;;;5093284;28;20023;-73
2021/12/24 11:52:27;;;;;;;3.50;1.73;;;7.10;99.90;;;;;;5109402;28;20514;-72
2021/12/24 11:54:55;;;;;;;3.58;1.83;;;7.10;99.90;;;;;;5099451;28;20040;-72
2021/12/24 11:57:22;;;;;;;3.45;1.73;;;7.10;99.90;;;;;;5112288;28;20545;-73
2021/12/24 11:59:48;;;;;;;5.32;2.10;;;7.10;99.90;;;;;;5111987;28;20491;-72
2021/12/24 12:02:47;;;;;;;3.83;1.70;;;7.10;99.90;;;;;;5111231;28;20043;-72
2021/12/24 12:05:26;;;;;;;3.35;1.50;;;7.00;99.90;;;;;;5116205;27;20184;-73
2021/12/24 12:08:12;;;;;;;3.90;2.00;;;7.00;99.90;;;;;;5114158;28;20046;-73
2021/12/24 12:11:07;;;;;;;3.58;1.80;;;7.00;99.90;;;;;;5130916;27;20395;-73
2021/12/24 12:13:42;;;;;;;4.10;1.80;;;7.00;99.90;;;;;;5098763;28;20118;-73
2021/12/24 12:16:13;;;;;;;3.97;1.98;;;7.10;99.90;;;;;;5092218;28;20040;-72
2021/12/24 12:18:44;;;;;;;4.53;2.00;;;7.00;99.90;;;;;;5093298;28;20504;-72
2021/12/24 12:21:13;;;;;;;4.43;2.20;;;7.00;99.90;;;;;;5093097;28;20047;-73
2021/12/24 12:23:49;;;;;;;3.20;1.73;;;7.00;99.90;;;;;;5078289;28;20036;-73
2021/12/24 12:26:43;;;;;;;3.40;1.92;;;7.00;99.90;;;;;;5094577;28;20077;-73
2021/12/24 12:29:27;;;;;;;4.05;1.90;;;7.00;99.90;;;;;;5082853;28;20032;-73
2021/12/24 12:32:26;;;;;;;5.93;2.00;;;7.00;99.90;;;;;;5095658;27;20035;-73
2021/12/24 12:34:59;;;;;;;4.15;2.10;;;7.00;99.90;;;;;;5092686;28;20459;-73
2021/12/24 12:37:31;;;;;;;4.72;2.30;;;6.90;99.90;;;;;;5111628;28;20074;-73
2021/12/24 12:40:12;;;;;;;4.25;2.10;;;6.90;99.90;;;;;;5113228;28;20083;-72
2021/12/24 12:42:55;;;;;;;5.47;2.53;;;6.90;99.90;;;;;;5094570;28;20442;-73
2021/12/24 12:45:31;;;;;;;3.92;2.17;;;6.90;99.90;;;;;;5082592;28;20051;-72
2021/12/24 12:48:00;;;;;;;3.65;1.80;;;6.90;99.90;;;;;;5098673;28;20504;-73
2021/12/24 12:50:27;;;;;;;5.22;2.33;;;6.90;99.90;;;;;;5099335;28;20047;-73
2021/12/24 12:53:30;;;;;;;3.80;1.98;;;6.80;99.90;;;;;;5112808;28;20058;-73
2021/12/24 12:56:08;;;;;;;;;;;6.90;99.90;;;;;;5083909;28;20040;-72
2021/12/24 12:58:35;;;;;;;3.65;2.00;;;6.80;99.90;;;;;;5126885;27;19916;-73
2021/12/24 13:01:07;;;;;;;7.97;3.22;;;6.80;99.90;;;;;;5102243;28;20070;-73
2021/12/24 13:03:53;;;;;;;4.82;2.40;;;6.80;99.90;;;;;;5098435;28;20039;-73
2021/12/24 13:06:20;;;;;;;4.00;2.13;;;6.90;99.90;;;;;;5086221;28;20040;-73
2021/12/24 13:08:46;;;;;;;4.78;2.50;;;6.90;99.90;;;;;;5095698;28;20031;-73
2021/12/24 13:11:13;;;;;;;5.35;2.92;;;6.90;99.90;;;;;;5095488;28;20491;-73
2021/12/24 13:13:54;;;;;;;4.20;2.30;;;6.90;99.90;;;;;;5112243;28;20475;-73
2021/12/24 13:16:34;;;;;;;5.05;2.72;;;6.80;99.90;;;;;;5130933;27;20044;-73
2021/12/24 13:19:24;;;;;;;5.18;2.72;;;6.80;99.90;;;;;;5095698;28;20084;-73
2021/12/24 13:24:54;;;;;;;5.07;2.65;;;6.80;99.90;;;;;;5110363;28;20052;-73
2021/12/24 13:27:27;;;;;;;4.50;2.47;;;6.80;99.90;;;;;;5093000;27;20079;-73
2021/12/24 13:30:14;;;;;;;4.63;2.50;;;6.90;99.90;;;;;;5103075;28;20073;-76
2021/12/24 13:32:42;;;;;;;7.50;2.75;;;6.90;99.90;;;;;;5091512;28;20042;-76
2021/12/24 13:35:08;;;;;;;5.20;2.58;;;7.00;99.90;;;;;;5091693;28;20044;-74
2021/12/24 13:37:34;;;;;;;6.00;2.67;;;7.00;99.90;;;;;;5084319;28;20034;-73
2021/12/24 13:40:00;;;;;;;5.50;2.60;;;7.00;99.90;;;;;;5111362;28;20043;-73
2021/12/24 13:42:26;;;;;;;5.13;2.28;;;7.00;99.90;;;;;;5093161;28;20097;-73
2021/12/24 13:45:00;;;;;;;4.70;2.40;;;7.00;99.90;;;;;;5093920;28;20480;-73
2021/12/24 13:47:41;;;;;;;4.78;2.28;;;7.00;99.90;;;;;;5101199;28;20503;-73
2021/12/24 13:55:38;;;;;;;5.03;2.38;;;6.90;99.90;;;;;;5095955;28;20558;-73
2021/12/24 13:58:10;;;;;;;4.78;2.63;;;6.90;99.90;;;;;;5074775;28;20055;-73
2021/12/24 14:00:39;;;;;;;5.28;2.47;;;6.90;99.90;;;;;;5091809;28;20127;-73
2021/12/24 14:03:09;;;;;;;4.85;2.50;;;6.80;99.90;;;;;;5110931;28;20039;-73
2021/12/24 14:05:46;;;;;;;5.30;2.63;;;6.80;99.90;;;;;;5094108;28;20075;-73
2021/12/24 14:08:17;;;;;;;4.53;2.17;;;6.80;99.90;;;;;;5109604;28;20036;-73
2021/12/24 14:10:44;;;;;;;5.60;2.53;;;6.80;99.90;;;;;;5097056;28;20035;-73
2021/12/24 14:13:23;;;;;;;3.97;2.28;;;6.70;99.90;;;;;;5092984;28;20384;-73
2021/12/24 14:18:44;;;;;;;5.95;2.55;;;6.80;99.90;;;;;;5125938;28;20076;-73
2021/12/24 14:24:29;;;;;;;6.38;2.60;;;6.70;99.90;;;;;;5111013;28;20048;-73
2021/12/24 14:27:01;;;;;;;4.95;2.50;;;6.70;99.90;;;;;;5110458;28;20130;-73
2021/12/24 14:29:28;;;;;;;5.03;2.47;;;6.70;99.90;;;;;;5089059;28;20040;-73
2021/12/24 14:32:07;;;;;;;5.00;2.53;;;6.60;99.90;;;;;;5102939;28;20048;-73
2021/12/24 14:34:43;;;;;;;5.15;2.80;;;6.60;99.90;;;;;;5110873;28;20042;-73
2021/12/24 14:37:38;;;;;;;4.18;2.17;;;6.60;99.90;;;;;;5131887;27;20108;-73
2021/12/24 14:40:07;;;;;;;4.50;2.25;;;6.70;99.90;;;;;;5088385;28;20058;-73
2021/12/24 14:42:47;;;;;;;4.55;2.30;;;6.70;99.90;;;;;;5094950;28;20100;-73
2021/12/24 14:45:37;;;;;;;4.75;2.35;;;6.60;99.90;;;;;;5115426;28;20507;-73
2021/12/24 14:48:12;;;;;;;6.47;2.30;;;6.60;99.90;;;;;;5115304;28;20071;-73
2021/12/24 14:50:44;;;;;;;4.45;2.10;;;6.60;99.90;;;;;;5145540;27;20127;-73
2021/12/24 14:53:40;;;;;;;4.35;2.30;;;6.60;99.90;;;;;;5094343;28;20517;-73
2021/12/24 14:56:23;;;;;;;5.18;2.40;;;6.50;99.90;;;;;;5102087;28;20047;-73